createdAt,value
2018-01-01T00:00:40.924Z,18.4
2018-01-01T00:01:43.562Z,18.4
2018-01-01T00:02:46.166Z,18.4
2018-01-01T00:03:48.745Z,18.4
2018-01-01T00:04:53.168Z,18.4
2018-01-01T00:05:55.735Z,18.4
2018-01-01T00:06:58.347Z,18.3
2018-01-01T00:08:00.864Z,18.4
2018-01-01T00:09:03.406Z,18.3
2018-01-01T00:10:05.981Z,18.4
2018-01-01T00:11:08.620Z,18.2
2018-01-01T00:12:11.225Z,18.3
2018-01-01T00:13:13.806Z,18.3
2018-01-01T00:14:16.286Z,18.1
2018-01-01T00:15:18.936Z,18.3
2018-01-01T00:16:21.457Z,18.3
2018-01-01T00:17:23.950Z,18.3
2018-01-01T00:18:26.427Z,18.3
2018-01-01T00:19:29.300Z,18.4
2018-01-01T00:20:31.888Z,18.3
2018-01-01T00:21:34.489Z,18.3
2018-01-01T00:22:37.037Z,18.2
2018-01-01T00:23:39.555Z,18.3
2018-01-01T00:24:42.053Z,18.3
2018-01-01T00:25:44.563Z,18.3
2018-01-01T00:26:47.036Z,18.3
2018-01-01T00:27:49.790Z,18.2
2018-01-01T00:28:52.381Z,18.2
2018-01-01T00:29:55.042Z,18.2
2018-01-01T00:30:57.556Z,18.2
2018-01-01T00:32:00.229Z,18.2
2018-01-01T00:33:08.794Z,18.2
2018-01-01T00:34:11.280Z,18.2
2018-01-01T00:35:13.876Z,18.2
2018-01-01T00:36:16.363Z,18.2
2018-01-01T00:37:18.962Z,18.2
2018-01-01T00:38:21.475Z,18.2
2018-01-01T00:39:24.002Z,18.2
2018-01-01T00:40:26.514Z,18.2
2018-01-01T00:41:29.131Z,18.1
2018-01-01T00:42:31.691Z,18.1
2018-01-01T00:43:34.294Z,18
2018-01-01T00:44:36.842Z,18.1
2018-01-01T00:45:39.546Z,18.2
2018-01-01T00:46:42.196Z,18.1
2018-01-01T00:47:44.746Z,18
2018-01-01T00:48:47.321Z,18.1
2018-01-01T00:49:49.988Z,18.1
2018-01-01T00:50:52.557Z,18.1
2018-01-01T00:51:55.308Z,18.1
2018-01-01T00:52:58.035Z,18.1
2018-01-01T00:54:00.638Z,18.1
2018-01-01T00:55:03.240Z,18.1
2018-01-01T00:56:05.800Z,18.1
2018-01-01T00:57:08.411Z,18
2018-01-01T00:58:11.077Z,18.1
2018-01-01T00:59:13.641Z,18.1
2018-01-01T01:00:16.190Z,18.1
2018-01-01T01:01:18.903Z,18.1
2018-01-01T01:02:21.433Z,18
2018-01-01T01:03:23.930Z,18
2018-01-01T01:04:26.743Z,18.1
2018-01-01T01:05:29.322Z,18
2018-01-01T01:06:32.135Z,18
2018-01-01T01:07:35.077Z,18
2018-01-01T01:08:37.678Z,18
2018-01-01T01:09:40.399Z,18
2018-01-01T01:10:42.982Z,18.1
2018-01-01T01:11:45.755Z,18.1
2018-01-01T01:12:48.654Z,18
2018-01-01T01:13:51.294Z,18
2018-01-01T01:14:53.851Z,18
2018-01-01T01:15:56.421Z,18
2018-01-01T01:16:59.134Z,18
2018-01-01T01:18:02.058Z,18
2018-01-01T01:19:04.578Z,18
2018-01-01T01:20:07.158Z,18
2018-01-01T01:21:09.819Z,18
2018-01-01T01:22:12.337Z,18
2018-01-01T01:23:14.923Z,18
2018-01-01T01:24:17.455Z,18
2018-01-01T01:25:20.123Z,18
2018-01-01T01:26:22.760Z,17.8
2018-01-01T01:27:25.253Z,18
2018-01-01T01:28:27.829Z,18
2018-01-01T01:29:30.567Z,18
2018-01-01T01:30:33.272Z,17.9
2018-01-01T01:31:35.773Z,18
2018-01-01T01:32:38.302Z,18
2018-01-01T01:33:40.879Z,18
2018-01-01T01:34:43.449Z,18
2018-01-01T01:35:45.944Z,17.9
2018-01-01T01:36:48.673Z,17.9
2018-01-01T01:37:51.489Z,18
2018-01-01T01:38:54.180Z,18
2018-01-01T01:39:56.717Z,18
2018-01-01T01:40:59.353Z,17.9
2018-01-01T01:42:02.023Z,17.9
2018-01-01T01:43:05.383Z,17.9
2018-01-01T01:44:07.927Z,17.9
2018-01-01T01:45:10.480Z,17.9
2018-01-01T01:46:18.034Z,17.9
2018-01-01T01:47:24.602Z,17.5
2018-01-01T01:48:29.788Z,16.6
2018-01-01T01:49:32.964Z,16.1
2018-01-01T01:50:37.597Z,15.9
2018-01-01T01:51:45.440Z,16
2018-01-01T01:52:48.381Z,15.8
2018-01-01T01:53:51.305Z,15.6
2018-01-01T01:54:54.178Z,15.5
2018-01-01T01:55:56.891Z,15.6
2018-01-01T01:56:59.557Z,15.5
2018-01-01T01:58:02.233Z,15.4
2018-01-01T01:59:04.817Z,15.4
2018-01-01T02:00:07.364Z,15.5
2018-01-01T02:01:10.078Z,15.7
2018-01-01T02:02:13.028Z,15.5
2018-01-01T02:03:15.804Z,15.3
2018-01-01T02:04:19.836Z,15.3
2018-01-01T02:05:22.669Z,15.2
2018-01-01T02:06:25.602Z,15.3
2018-01-01T02:07:28.457Z,15.4
2018-01-01T02:08:31.323Z,15.6
2018-01-01T02:09:34.020Z,15.6
2018-01-01T02:10:36.590Z,15.5
2018-01-01T02:11:41.719Z,15.7
2018-01-01T02:12:44.234Z,15.7
2018-01-01T02:13:46.873Z,15.7
2018-01-01T02:14:49.592Z,15.8
2018-01-01T02:15:52.286Z,15.6
2018-01-01T02:16:54.936Z,15.7
2018-01-01T02:17:57.925Z,15.3
2018-01-01T02:19:00.857Z,15.3
2018-01-01T02:20:03.674Z,15.6
2018-01-01T02:21:06.675Z,15.2
2018-01-01T02:22:10.548Z,15.2
2018-01-01T02:23:14.645Z,14.5
2018-01-01T02:24:17.361Z,14.7
2018-01-01T02:25:20.226Z,15.1
2018-01-01T02:26:22.829Z,15.5
2018-01-01T02:27:25.532Z,15.4
2018-01-01T02:28:28.231Z,15.3
2018-01-01T02:29:30.989Z,14.9
2018-01-01T02:30:33.564Z,14.7
2018-01-01T02:31:36.245Z,14.8
2018-01-01T02:32:39.020Z,14.9
2018-01-01T02:33:43.216Z,15.1
2018-01-01T02:34:46.044Z,15
2018-01-01T02:35:48.779Z,15
2018-01-01T02:36:51.448Z,15
2018-01-01T02:37:54.081Z,14.8
2018-01-01T02:38:56.676Z,14.5
2018-01-01T02:39:59.317Z,14.3
2018-01-01T02:41:03.079Z,14.3
2018-01-01T02:42:06.247Z,14.3
2018-01-01T02:43:09.100Z,14.6
2018-01-01T02:44:11.920Z,14.8
2018-01-01T02:45:14.518Z,14.8
2018-01-01T02:46:17.287Z,14.7
2018-01-01T02:47:20.232Z,14.6
2018-01-01T02:48:23.035Z,14.8
2018-01-01T02:49:26.948Z,14.8
2018-01-01T02:50:30.168Z,14.6
2018-01-01T02:51:32.898Z,14.4
2018-01-01T02:52:37.798Z,14
2018-01-01T02:53:40.553Z,14.1
2018-01-01T02:54:43.121Z,14
2018-01-01T02:55:45.829Z,14.1
2018-01-01T02:56:48.413Z,14
2018-01-01T02:57:51.099Z,13.8
2018-01-01T02:58:53.764Z,13.8
2018-01-01T02:59:57.527Z,13.8
2018-01-01T03:01:00.144Z,13.5
2018-01-01T03:02:03.117Z,13.7
2018-01-01T03:03:05.652Z,13.7
2018-01-01T03:04:08.439Z,13.9
2018-01-01T03:05:11.332Z,13.9
2018-01-01T03:06:18.534Z,14.1
2018-01-01T03:07:21.614Z,14
2018-01-01T03:08:24.307Z,13.9
2018-01-01T03:09:27.058Z,14
2018-01-01T03:10:29.746Z,14
2018-01-01T03:11:32.372Z,13.8
2018-01-01T03:12:39.929Z,13.7
2018-01-01T03:13:42.623Z,13.6
2018-01-01T03:14:45.313Z,13.6
2018-01-01T03:15:48.031Z,13.5
2018-01-01T03:16:50.811Z,13.3
2018-01-01T03:17:53.492Z,13.6
2018-01-01T03:18:56.171Z,13.6
2018-01-01T03:19:58.799Z,13.6
2018-01-01T03:21:02.292Z,13.2
2018-01-01T03:22:05.115Z,13.3
2018-01-01T03:23:07.812Z,13.3
2018-01-01T03:24:10.364Z,13.3
2018-01-01T03:25:13.129Z,13.1
2018-01-01T03:26:15.892Z,13
2018-01-01T03:27:18.611Z,13.2
2018-01-01T03:28:21.276Z,13.2
2018-01-01T03:29:23.988Z,13.4
2018-01-01T03:30:26.695Z,13.4
2018-01-01T03:31:29.587Z,13.6
2018-01-01T03:32:32.232Z,13.2
2018-01-01T03:33:35.040Z,13.2
2018-01-01T03:34:37.766Z,13.2
2018-01-01T03:35:40.513Z,13.3
2018-01-01T03:36:43.185Z,13.2
2018-01-01T03:37:45.844Z,13.2
2018-01-01T03:38:48.443Z,13.2
2018-01-01T03:39:51.147Z,13.3
2018-01-01T03:40:53.698Z,13.4
2018-01-01T03:41:56.208Z,13.4
2018-01-01T03:42:58.737Z,13.4
2018-01-01T03:44:03.244Z,13.2
2018-01-01T03:45:05.807Z,13.1
2018-01-01T03:46:08.605Z,13.1
2018-01-01T03:47:11.304Z,13
2018-01-01T03:48:13.873Z,13.2
2018-01-01T03:49:16.459Z,13.1
2018-01-01T03:50:18.984Z,13.3
2018-01-01T03:51:21.551Z,13.4
2018-01-01T03:52:24.300Z,13.5
2018-01-01T03:53:26.910Z,13.7
2018-01-01T03:54:30.243Z,13.5
2018-01-01T03:55:32.794Z,13.7
2018-01-01T03:56:35.348Z,13.6
2018-01-01T03:57:37.937Z,13.7
2018-01-01T03:58:40.999Z,13.6
2018-01-01T03:59:43.662Z,13.4
2018-01-01T04:00:46.650Z,13.3
2018-01-01T04:01:49.211Z,13.5
2018-01-01T04:02:51.917Z,13.3
2018-01-01T04:03:54.607Z,13
2018-01-01T04:04:57.222Z,13.2
2018-01-01T04:05:59.818Z,13.3
2018-01-01T04:07:02.434Z,13.3
2018-01-01T04:08:05.293Z,13.4
2018-01-01T04:09:08.041Z,13.5
2018-01-01T04:10:10.685Z,13.5
2018-01-01T04:11:13.417Z,13.5
2018-01-01T04:12:16.004Z,13.4
2018-01-01T04:13:18.682Z,13.4
2018-01-01T04:14:21.311Z,13.2
2018-01-01T04:15:23.868Z,13.4
2018-01-01T04:16:26.471Z,13.2
2018-01-01T04:17:29.060Z,13.3
2018-01-01T04:18:31.822Z,13.2
2018-01-01T04:19:34.480Z,13.2
2018-01-01T04:20:36.989Z,13.1
2018-01-01T04:21:39.579Z,13.1
2018-01-01T04:22:42.109Z,13.1
2018-01-01T04:23:44.708Z,13.3
2018-01-01T04:24:47.199Z,12.9
2018-01-01T04:25:49.879Z,13.1
2018-01-01T04:26:52.471Z,13
2018-01-01T04:27:55.070Z,13.1
2018-01-01T04:28:57.677Z,12.9
2018-01-01T04:30:00.322Z,13.2
2018-01-01T04:31:02.998Z,13.3
2018-01-01T04:32:12.255Z,13.1
2018-01-01T04:33:15.091Z,13.2
2018-01-01T04:34:17.765Z,13.1
2018-01-01T04:35:20.427Z,12.8
2018-01-01T04:36:23.162Z,12.8
2018-01-01T04:37:25.857Z,12.9
2018-01-01T04:38:28.658Z,12.8
2018-01-01T04:39:31.463Z,12.6
2018-01-01T04:40:34.043Z,12.7
2018-01-01T04:41:36.638Z,12.7
2018-01-01T04:42:39.163Z,12.9
2018-01-01T04:43:41.732Z,12.6
2018-01-01T04:44:44.296Z,12.6
2018-01-01T04:45:46.909Z,12.5
2018-01-01T04:46:49.458Z,12.8
2018-01-01T04:47:52.045Z,12.9
2018-01-01T04:48:54.733Z,12.6
2018-01-01T04:49:57.361Z,12.9
2018-01-01T04:51:00.172Z,12.8
2018-01-01T04:52:02.795Z,12.6
2018-01-01T04:53:05.429Z,12.7
2018-01-01T04:54:07.955Z,12.9
2018-01-01T04:55:10.571Z,12.7
2018-01-01T04:56:13.904Z,12.8
2018-01-01T04:57:16.446Z,12.8
2018-01-01T04:58:18.953Z,12.7
2018-01-01T04:59:21.611Z,12.9
2018-01-01T05:00:24.188Z,12.8
2018-01-01T05:01:26.898Z,12.8
2018-01-01T05:02:29.473Z,12.8
2018-01-01T05:03:32.163Z,13
2018-01-01T05:04:34.916Z,12.8
2018-01-01T05:05:37.628Z,12.9
2018-01-01T05:06:40.198Z,13.1
2018-01-01T05:07:42.729Z,12.8
2018-01-01T05:08:45.295Z,12.9
2018-01-01T05:09:47.861Z,12.9
2018-01-01T05:10:50.485Z,12.9
2018-01-01T05:11:53.096Z,12.7
2018-01-01T05:12:55.562Z,12.9
2018-01-01T05:13:58.258Z,13
2018-01-01T05:15:00.928Z,12.9
2018-01-01T05:16:03.643Z,12.9
2018-01-01T05:17:06.244Z,13.1
2018-01-01T05:18:08.714Z,13
2018-01-01T05:19:11.404Z,12.9
2018-01-01T05:20:13.862Z,12.6
2018-01-01T05:21:16.397Z,12.7
2018-01-01T05:22:19.092Z,12.7
2018-01-01T05:23:21.692Z,12.8
2018-01-01T05:24:24.280Z,12.8
2018-01-01T05:25:26.813Z,12.8
2018-01-01T05:26:29.337Z,12.7
2018-01-01T05:27:31.890Z,12.8
2018-01-01T05:28:34.499Z,12.8
2018-01-01T05:29:37.058Z,12.8
2018-01-01T05:30:39.640Z,12.7
2018-01-01T05:31:42.322Z,12.8
2018-01-01T05:32:44.923Z,12.7
2018-01-01T05:33:47.519Z,12.6
2018-01-01T05:34:50.190Z,12.5
2018-01-01T05:35:52.792Z,12.5
2018-01-01T05:36:55.450Z,12.6
2018-01-01T05:37:58.130Z,12.6
2018-01-01T05:39:00.848Z,12.8
2018-01-01T05:40:03.466Z,12.8
2018-01-01T05:41:06.145Z,12.9
2018-01-01T05:42:08.936Z,12.9
2018-01-01T05:43:11.704Z,12.6
2018-01-01T05:44:14.319Z,12.7
2018-01-01T05:45:16.862Z,12.6
2018-01-01T05:46:19.467Z,12.6
2018-01-01T05:47:22.266Z,12.7
2018-01-01T05:48:25.076Z,12.6
2018-01-01T05:49:28.055Z,12.6
2018-01-01T05:50:30.733Z,12.8
2018-01-01T05:51:33.639Z,12.9
2018-01-01T05:52:36.197Z,12.7
2018-01-01T05:53:38.662Z,12.6
2018-01-01T05:54:41.236Z,12.4
2018-01-01T05:55:43.872Z,12.6
2018-01-01T05:56:46.401Z,12.6
2018-01-01T05:57:48.945Z,12.7
2018-01-01T05:58:51.465Z,12.6
2018-01-01T05:59:53.998Z,12.7
2018-01-01T06:00:56.576Z,12.5
2018-01-01T06:01:59.046Z,12.6
2018-01-01T06:03:01.760Z,12.5
2018-01-01T06:04:04.471Z,12.9
2018-01-01T06:05:06.954Z,12.8
2018-01-01T06:06:09.600Z,12.6
2018-01-01T06:07:12.143Z,12.7
2018-01-01T06:08:14.772Z,12.4
2018-01-01T06:09:17.290Z,12.4
2018-01-01T06:10:19.906Z,12.5
2018-01-01T06:11:22.645Z,12.5
2018-01-01T06:12:25.226Z,12.6
2018-01-01T06:13:28.135Z,12.4
2018-01-01T06:14:30.835Z,12.3
2018-01-01T06:15:34.364Z,12.4
2018-01-01T06:16:37.019Z,12.6
2018-01-01T06:17:39.780Z,12.6
2018-01-01T06:18:42.374Z,12.6
2018-01-01T06:19:44.967Z,12.5
2018-01-01T06:20:47.554Z,12.7
2018-01-01T06:21:50.543Z,12.5
2018-01-01T06:22:53.221Z,12.6
2018-01-01T06:23:55.773Z,12.3
2018-01-01T06:24:59.224Z,12.4
2018-01-01T06:26:01.794Z,12.4
2018-01-01T06:27:08.196Z,12.3
2018-01-01T06:28:10.887Z,12.4
2018-01-01T06:29:13.411Z,12.3
2018-01-01T06:30:15.906Z,12.4
2018-01-01T06:31:18.616Z,12.2
2018-01-01T06:32:21.317Z,12.2
2018-01-01T06:33:23.777Z,12.2
2018-01-01T06:34:26.454Z,12.1
2018-01-01T06:35:29.133Z,12.2
2018-01-01T06:36:31.629Z,12.3
2018-01-01T06:37:34.117Z,12.4
2018-01-01T06:38:36.565Z,12.4
2018-01-01T06:39:39.077Z,12.3
2018-01-01T06:40:41.587Z,12.4
2018-01-01T06:41:44.115Z,12.4
2018-01-01T06:42:46.723Z,12.2
2018-01-01T06:43:49.352Z,12.2
2018-01-01T06:44:52.223Z,12.2
2018-01-01T06:45:54.808Z,12.2
2018-01-01T06:46:57.392Z,12.5
2018-01-01T06:47:59.977Z,12.5
2018-01-01T06:49:02.673Z,12.5
2018-01-01T06:50:05.275Z,12.4
2018-01-01T06:51:07.751Z,12.3
2018-01-01T06:52:10.276Z,12.2
2018-01-01T06:53:12.814Z,12.2
2018-01-01T06:54:15.496Z,12.4
2018-01-01T06:55:18.015Z,12.2
2018-01-01T06:56:20.651Z,12.4
2018-01-01T06:57:23.387Z,12.2
2018-01-01T06:58:25.976Z,12.1
2018-01-01T06:59:28.476Z,12.2
2018-01-01T07:00:31.031Z,12.4
2018-01-01T07:01:33.541Z,12.4
2018-01-01T07:02:36.161Z,12.4
2018-01-01T07:03:38.763Z,12.3
2018-01-01T07:04:41.323Z,12.3
2018-01-01T07:05:43.892Z,12.4
2018-01-01T07:06:46.430Z,12.5
2018-01-01T07:07:50.355Z,12.3
2018-01-01T07:08:52.912Z,12.3
2018-01-01T07:09:55.498Z,12.3
2018-01-01T07:10:58.016Z,12.4
2018-01-01T07:12:00.644Z,12.2
2018-01-01T07:13:03.311Z,12.4
2018-01-01T07:14:06.038Z,12.5
2018-01-01T07:15:08.763Z,12.5
2018-01-01T07:16:11.842Z,12.4
2018-01-01T07:17:15.164Z,12.5
2018-01-01T07:18:17.699Z,12.4
2018-01-01T07:19:20.189Z,12.3
2018-01-01T07:20:22.761Z,12.3
2018-01-01T07:21:25.409Z,12.4
2018-01-01T07:22:27.985Z,12.4
2018-01-01T07:23:30.587Z,12.3
2018-01-01T07:24:33.243Z,12.4
2018-01-01T07:25:35.965Z,12.2
2018-01-01T07:26:38.562Z,12.4
2018-01-01T07:27:41.276Z,12.4
2018-01-01T07:28:44.037Z,12.4
2018-01-01T07:29:46.804Z,12.3
2018-01-01T07:30:49.525Z,12.4
2018-01-01T07:31:52.454Z,12.1
2018-01-01T07:32:54.940Z,12.7
2018-01-01T07:33:57.476Z,13.3
2018-01-01T07:34:59.976Z,14.1
2018-01-01T07:36:02.737Z,14.4
2018-01-01T07:37:05.253Z,14.7
2018-01-01T07:38:07.785Z,14.6
2018-01-01T07:39:10.326Z,14.6
2018-01-01T07:40:12.892Z,14.9
2018-01-01T07:41:15.364Z,14.9
2018-01-01T07:42:17.964Z,14.9
2018-01-01T07:43:20.479Z,14.9
2018-01-01T07:44:23.109Z,15.1
2018-01-01T07:45:25.613Z,15.2
2018-01-01T07:46:28.247Z,15.2
2018-01-01T07:47:31.024Z,15.1
2018-01-01T07:48:33.696Z,15.2
2018-01-01T07:49:36.920Z,15.2
2018-01-01T07:50:39.503Z,15.2
2018-01-01T07:51:42.018Z,15.2
2018-01-01T07:52:44.624Z,15.5
2018-01-01T07:53:47.267Z,15.5
2018-01-01T07:54:49.782Z,15.4
2018-01-01T07:55:52.487Z,15.6
2018-01-01T07:56:54.936Z,15.5
2018-01-01T07:57:57.528Z,15.6
2018-01-01T07:59:00.150Z,15.5
2018-01-01T08:00:02.697Z,15.5
2018-01-01T08:01:05.207Z,15.6
2018-01-01T08:02:08.000Z,15.6
2018-01-01T08:03:10.684Z,15.5
2018-01-01T08:04:13.264Z,15.6
2018-01-01T08:05:15.772Z,15.6
2018-01-01T08:06:20.949Z,15.7
2018-01-01T08:07:25.807Z,15.7
2018-01-01T08:08:28.330Z,15.7
2018-01-01T08:09:30.957Z,15.6
2018-01-01T08:10:33.423Z,15.7
2018-01-01T08:11:35.952Z,15.7
2018-01-01T08:12:38.540Z,15.8
2018-01-01T08:13:41.144Z,15.8
2018-01-01T08:14:43.655Z,15.8
2018-01-01T08:15:46.149Z,15.9
2018-01-01T08:16:48.659Z,15.9
2018-01-01T08:17:51.255Z,16
2018-01-01T08:18:54.014Z,16
2018-01-01T08:19:56.508Z,16
2018-01-01T08:20:59.018Z,15.9
2018-01-01T08:22:01.632Z,15.9
2018-01-01T08:23:04.262Z,15.9
2018-01-01T08:24:06.753Z,15.9
2018-01-01T08:25:09.304Z,16
2018-01-01T08:26:12.656Z,15.8
2018-01-01T08:27:15.202Z,16.1
2018-01-01T08:28:17.783Z,15.9
2018-01-01T08:29:20.292Z,16
2018-01-01T08:30:22.935Z,16
2018-01-01T08:31:25.526Z,16
2018-01-01T08:32:28.143Z,15.9
2018-01-01T08:33:30.728Z,16.2
2018-01-01T08:34:33.297Z,16.3
2018-01-01T08:35:35.762Z,16.2
2018-01-01T08:36:38.288Z,16.2
2018-01-01T08:37:41.016Z,16.2
2018-01-01T08:38:43.819Z,16.2
2018-01-01T08:39:46.644Z,16.1
2018-01-01T08:40:49.156Z,16.1
2018-01-01T08:41:51.732Z,16
2018-01-01T08:42:54.262Z,16.2
2018-01-01T08:43:56.782Z,16.2
2018-01-01T08:44:59.316Z,16.2
2018-01-01T08:46:02.012Z,16.2
2018-01-01T08:47:04.570Z,16.3
2018-01-01T08:48:07.091Z,16.3
2018-01-01T08:49:09.656Z,16.4
2018-01-01T08:50:12.343Z,16.3
2018-01-01T08:51:14.884Z,16.2
2018-01-01T08:52:17.438Z,16.3
2018-01-01T08:53:19.988Z,16.3
2018-01-01T08:54:22.593Z,16.4
2018-01-01T08:55:25.729Z,16.3
2018-01-01T08:56:28.401Z,16.3
2018-01-01T08:57:30.915Z,16.3
2018-01-01T08:58:33.480Z,16.1
2018-01-01T08:59:36.005Z,16.2
2018-01-01T09:00:38.554Z,16.3
2018-01-01T09:01:41.066Z,16.3
2018-01-01T09:02:43.632Z,16.3
2018-01-01T09:03:46.257Z,16.2
2018-01-01T09:04:48.718Z,16.3
2018-01-01T09:05:51.267Z,16.2
2018-01-01T09:06:53.693Z,16.2
2018-01-01T09:07:56.287Z,16.3
2018-01-01T09:08:58.866Z,16.3
2018-01-01T09:10:01.504Z,16.3
2018-01-01T09:11:04.048Z,16.4
2018-01-01T09:12:06.626Z,16.5
2018-01-01T09:13:09.176Z,16.5
2018-01-01T09:14:11.765Z,16.4
2018-01-01T09:15:14.266Z,16.4
2018-01-01T09:16:16.773Z,16.4
2018-01-01T09:17:19.225Z,16.5
2018-01-01T09:18:21.830Z,16.5
2018-01-01T09:19:24.330Z,16.5
2018-01-01T09:20:26.799Z,16.4
2018-01-01T09:21:29.776Z,16.4
2018-01-01T09:22:32.291Z,16.4
2018-01-01T09:23:34.883Z,16.4
2018-01-01T09:24:37.519Z,16.3
2018-01-01T09:25:40.020Z,16.5
2018-01-01T09:26:42.646Z,16.6
2018-01-01T09:27:45.151Z,16.5
2018-01-01T09:28:47.685Z,16.6
2018-01-01T09:29:50.234Z,16.5
2018-01-01T09:30:53.008Z,16.5
2018-01-01T09:31:55.501Z,16.6
2018-01-01T09:32:57.988Z,16.6
2018-01-01T09:34:00.533Z,16.5
2018-01-01T09:35:03.111Z,16.5
2018-01-01T09:36:05.590Z,16.6
2018-01-01T09:37:08.139Z,16.5
2018-01-01T09:38:10.624Z,16.4
2018-01-01T09:39:13.312Z,16.4
2018-01-01T09:40:15.907Z,16.5
2018-01-01T09:41:18.463Z,16.5
2018-01-01T09:42:20.968Z,16.6
2018-01-01T09:43:23.575Z,16.5
2018-01-01T09:44:26.069Z,16.6
2018-01-01T09:45:28.517Z,16.6
2018-01-01T09:46:31.011Z,16.6
2018-01-01T09:47:33.534Z,16.5
2018-01-01T09:48:36.065Z,16.6
2018-01-01T09:49:38.533Z,16.8
2018-01-01T09:50:40.986Z,16.8
2018-01-01T09:51:43.509Z,16.8
2018-01-01T09:52:46.324Z,16.8
2018-01-01T09:53:48.811Z,16.8
2018-01-01T09:54:51.484Z,16.8
2018-01-01T09:55:54.128Z,16.8
2018-01-01T09:56:56.772Z,16.8
2018-01-01T09:57:59.398Z,16.8
2018-01-01T09:59:02.159Z,16.9
2018-01-01T10:00:04.803Z,16.9
2018-01-01T10:01:07.338Z,16.9
2018-01-01T10:02:10.004Z,16.9
2018-01-01T10:03:12.624Z,16.9
2018-01-01T10:04:15.154Z,16.9
2018-01-01T10:05:17.936Z,16.9
2018-01-01T10:06:20.650Z,16.9
2018-01-01T10:07:23.243Z,17
2018-01-01T10:08:25.751Z,16.9
2018-01-01T10:09:28.217Z,16.8
2018-01-01T10:10:30.677Z,16.9
2018-01-01T10:11:33.302Z,16.9
2018-01-01T10:12:35.870Z,16.9
2018-01-01T10:13:38.546Z,16.9
2018-01-01T10:14:41.220Z,17
2018-01-01T10:15:43.829Z,17
2018-01-01T10:16:46.465Z,17.1
2018-01-01T10:17:49.329Z,17.1
2018-01-01T10:18:51.895Z,17.1
2018-01-01T10:19:54.432Z,17.1
2018-01-01T10:20:56.917Z,17
2018-01-01T10:21:59.623Z,17
2018-01-01T10:23:02.295Z,17
2018-01-01T10:24:05.172Z,17
2018-01-01T10:25:07.711Z,17
2018-01-01T10:26:10.178Z,17.1
2018-01-01T10:27:16.968Z,17
2018-01-01T10:28:19.499Z,17.1
2018-01-01T10:29:22.093Z,17.1
2018-01-01T10:30:24.712Z,17.2
2018-01-01T10:31:27.249Z,17.1
2018-01-01T10:32:29.807Z,17.2
2018-01-01T10:33:32.410Z,17.2
2018-01-01T10:34:34.958Z,17.2
2018-01-01T10:35:37.602Z,17.3
2018-01-01T10:36:40.229Z,17.4
2018-01-01T10:37:43.247Z,17.4
2018-01-01T10:38:45.948Z,17.3
2018-01-01T10:39:48.529Z,17.3
2018-01-01T10:40:51.010Z,17.3
2018-01-01T10:41:53.574Z,17.2
2018-01-01T10:42:56.227Z,17.2
2018-01-01T10:43:58.721Z,17.3
2018-01-01T10:45:01.424Z,17.2
2018-01-01T10:46:04.036Z,17.2
2018-01-01T10:47:06.828Z,17.3
2018-01-01T10:48:09.529Z,17.4
2018-01-01T10:49:12.112Z,17.3
2018-01-01T10:50:14.704Z,17.4
2018-01-01T10:51:17.311Z,17.5
2018-01-01T10:52:19.962Z,17.5
2018-01-01T10:53:22.569Z,17.5
2018-01-01T10:54:25.172Z,17.2
2018-01-01T10:55:27.710Z,17.3
2018-01-01T10:56:30.381Z,17.4
2018-01-01T10:57:33.624Z,17.4
2018-01-01T10:58:37.099Z,17.4
2018-01-01T10:59:39.688Z,17.5
2018-01-01T11:00:42.565Z,17.5
2018-01-01T11:01:45.394Z,17.5
2018-01-01T11:02:47.945Z,17.6
2018-01-01T11:03:50.490Z,17.4
2018-01-01T11:04:53.074Z,17.3
2018-01-01T11:05:55.630Z,17.3
2018-01-01T11:06:58.322Z,17.4
2018-01-01T11:08:00.976Z,17.3
2018-01-01T11:09:03.608Z,17.4
2018-01-01T11:10:06.198Z,17.3
2018-01-01T11:11:08.837Z,17.3
2018-01-01T11:12:11.469Z,17.4
2018-01-01T11:13:14.242Z,17.4
2018-01-01T11:14:16.770Z,17.4
2018-01-01T11:15:19.440Z,17.4
2018-01-01T11:16:22.164Z,17.5
2018-01-01T11:17:24.709Z,17.5
2018-01-01T11:18:27.340Z,17.3
2018-01-01T11:19:29.954Z,17.4
2018-01-01T11:20:32.546Z,17.4
2018-01-01T11:21:35.164Z,17.3
2018-01-01T11:22:37.725Z,17.5
2018-01-01T11:23:40.289Z,17.5
2018-01-01T11:24:42.806Z,17.6
2018-01-01T11:25:45.402Z,17.7
2018-01-01T11:26:47.930Z,17.6
2018-01-01T11:27:50.407Z,17.6
2018-01-01T11:28:52.907Z,17.6
2018-01-01T11:29:55.566Z,17.6
2018-01-01T11:30:58.112Z,17.6
2018-01-01T11:32:00.679Z,17.7
2018-01-01T11:33:07.350Z,17.6
2018-01-01T11:34:10.058Z,17.6
2018-01-01T11:35:12.649Z,17.6
2018-01-01T11:36:15.830Z,17.6
2018-01-01T11:37:18.371Z,17.5
2018-01-01T11:38:21.030Z,17.5
2018-01-01T11:39:23.578Z,17.3
2018-01-01T11:40:26.764Z,17.3
2018-01-01T11:41:29.381Z,17.4
2018-01-01T11:42:32.023Z,17.5
2018-01-01T11:43:34.751Z,17.5
2018-01-01T11:44:37.301Z,17.5
2018-01-01T11:45:39.919Z,17.5
2018-01-01T11:46:42.558Z,17.5
2018-01-01T11:47:45.322Z,17.5
2018-01-01T11:48:47.881Z,17.6
2018-01-01T11:49:51.478Z,17.5
2018-01-01T11:50:54.153Z,17.5
2018-01-01T11:51:56.706Z,17.5
2018-01-01T11:52:59.265Z,17.5
2018-01-01T11:54:01.900Z,17.5
2018-01-01T11:55:04.539Z,17.5
2018-01-01T11:56:07.289Z,17.6
2018-01-01T11:57:09.841Z,17.6
2018-01-01T11:58:12.578Z,17.6
2018-01-01T11:59:17.168Z,17.6
2018-01-01T12:00:19.768Z,17.5
2018-01-01T12:01:23.304Z,17.4
2018-01-01T12:02:26.212Z,17.3
2018-01-01T12:03:28.976Z,17.4
2018-01-01T12:04:31.654Z,17.4
2018-01-01T12:05:34.307Z,17.4
2018-01-01T12:06:36.853Z,17.4
2018-01-01T12:07:39.545Z,17.4
2018-01-01T12:08:42.071Z,17.3
2018-01-01T12:09:44.971Z,17.4
2018-01-01T12:10:47.566Z,17.3
2018-01-01T12:11:51.463Z,17.3
2018-01-01T12:12:54.119Z,17.3
2018-01-01T12:13:56.947Z,17.3
2018-01-01T12:14:59.542Z,17.2
2018-01-01T12:16:02.237Z,17.2
2018-01-01T12:17:04.929Z,17.2
2018-01-01T12:18:07.540Z,17.1
2018-01-01T12:19:10.214Z,17.2
2018-01-01T12:20:12.776Z,17.2
2018-01-01T12:21:15.418Z,17.2
2018-01-01T12:22:18.089Z,17.2
2018-01-01T12:23:20.740Z,17.1
2018-01-01T12:24:23.322Z,17.1
2018-01-01T12:25:25.950Z,17.1
2018-01-01T12:26:28.795Z,17.1
2018-01-01T12:27:31.605Z,17.1
2018-01-01T12:28:34.221Z,17
2018-01-01T12:29:36.862Z,17
2018-01-01T12:30:39.449Z,17
2018-01-01T12:31:42.094Z,17
2018-01-01T12:32:44.806Z,17.1
2018-01-01T12:33:47.504Z,17
2018-01-01T12:34:50.159Z,17
2018-01-01T12:35:52.712Z,17
2018-01-01T12:36:55.349Z,17
2018-01-01T12:37:57.983Z,17
2018-01-01T12:39:00.735Z,17
2018-01-01T12:40:03.348Z,16.9
2018-01-01T12:41:06.150Z,16.9
2018-01-01T12:42:08.845Z,16.9
2018-01-01T12:43:11.534Z,16.9
2018-01-01T12:44:14.190Z,16.8
2018-01-01T12:45:16.855Z,16.8
2018-01-01T12:46:19.418Z,16.8
2018-01-01T12:47:22.064Z,16.9
2018-01-01T12:48:24.744Z,16.9
2018-01-01T12:49:27.470Z,16.9
2018-01-01T12:50:30.450Z,16.9
2018-01-01T12:51:33.047Z,16.8
2018-01-01T12:52:35.758Z,16.8
2018-01-01T12:53:38.325Z,16.8
2018-01-01T12:54:40.951Z,16.8
2018-01-01T12:55:43.553Z,16.8
2018-01-01T12:56:46.433Z,16.8
2018-01-01T12:57:49.170Z,16.8
2018-01-01T12:58:51.749Z,16.8
2018-01-01T12:59:54.349Z,16.8
2018-01-01T13:00:57.519Z,16.7
2018-01-01T13:02:00.346Z,16.8
2018-01-01T13:03:03.229Z,16.8
2018-01-01T13:04:06.015Z,16.8
2018-01-01T13:05:08.718Z,16.8
2018-01-01T13:06:11.337Z,16.8
2018-01-01T13:07:13.885Z,16.8
2018-01-01T13:08:16.850Z,16.8
2018-01-01T13:09:19.545Z,16.8
2018-01-01T13:10:22.196Z,16.7
2018-01-01T13:11:24.800Z,16.8
2018-01-01T13:12:27.538Z,16.8
2018-01-01T13:13:30.347Z,16.8
2018-01-01T13:14:33.239Z,16.7
2018-01-01T13:15:35.801Z,16.7
2018-01-01T13:16:39.109Z,16.7
2018-01-01T13:17:41.624Z,16.7
2018-01-01T13:18:44.265Z,16.6
2018-01-01T13:19:46.830Z,16.6
2018-01-01T13:20:49.415Z,16.6
2018-01-01T13:21:51.962Z,16.6
2018-01-01T13:22:54.585Z,16.6
2018-01-01T13:23:57.225Z,16.6
2018-01-01T13:24:59.829Z,16.6
2018-01-01T13:26:02.607Z,16.6
2018-01-01T13:27:05.403Z,16.6
2018-01-01T13:28:09.338Z,16.6
2018-01-01T13:29:12.170Z,16.6
2018-01-01T13:30:14.870Z,16.6
2018-01-01T13:31:19.679Z,16.5
2018-01-01T13:32:22.364Z,16.5
2018-01-01T13:33:25.139Z,16.5
2018-01-01T13:34:27.724Z,16.5
2018-01-01T13:35:30.439Z,16.3
2018-01-01T13:36:33.423Z,16.5
2018-01-01T13:37:36.104Z,16.5
2018-01-01T13:38:38.694Z,16.5
2018-01-01T13:39:41.977Z,16.5
2018-01-01T13:40:44.630Z,16.5
2018-01-01T13:41:47.357Z,16.5
2018-01-01T13:42:49.982Z,16.5
2018-01-01T13:43:52.860Z,16.5
2018-01-01T13:44:55.804Z,16.5
2018-01-01T13:45:58.398Z,16.3
2018-01-01T13:47:01.101Z,16.5
2018-01-01T13:48:03.678Z,16.4
2018-01-01T13:49:06.401Z,16.4
2018-01-01T13:50:09.113Z,16.5
2018-01-01T13:51:11.717Z,16.3
2018-01-01T13:52:14.420Z,16.5
2018-01-01T13:53:17.357Z,16.4
2018-01-01T13:54:19.963Z,16.4
2018-01-01T13:55:22.629Z,16.4
2018-01-01T13:56:25.587Z,16.4
2018-01-01T13:57:28.316Z,16.4
2018-01-01T13:58:30.998Z,16.4
2018-01-01T13:59:33.667Z,16.4
2018-01-01T14:00:36.244Z,16.3